sensor_id;sensor_type;location;lat;lon;timestamp;P1;durP1;ratioP1;P2;durP2;ratioP2
15230;SDS011;32569;51.762;8.564;2022-10-16T00:02:13;3.63;;;3.17;;
15230;SDS011;32569;51.762;8.564;2022-10-16T00:04:40;3.87;;;3.20;;
15230;SDS011;32569;51.762;8.564;2022-10-16T00:07:07;3.40;;;3.10;;
15230;SDS011;32569;51.762;8.564;2022-10-16T00:09:35;3.83;;;3.43;;
15230;SDS011;32569;51.762;8.564;2022-10-16T00:12:02;6.60;;;3.90;;
15230;SDS011;32569;51.762;8.564;2022-10-16T00:14:31;4.27;;;3.90;;
15230;SDS011;32569;51.762;8.564;2022-10-16T00:16:58;4.40;;;4.03;;
15230;SDS011;32569;51.762;8.564;2022-10-16T00:19:25;3.83;;;3.43;;
15230;SDS011;32569;51.762;8.564;2022-10-16T00:21:51;5.27;;;4.00;;
15230;SDS011;32569;51.762;8.564;2022-10-16T00:24:18;3.93;;;3.50;;
15230;SDS011;32569;51.762;8.564;2022-10-16T00:26:49;3.70;;;3.40;;
15230;SDS011;32569;51.762;8.564;2022-10-16T00:29:17;3.83;;;3.50;;
15230;SDS011;32569;51.762;8.564;2022-10-16T00:31:43;5.07;;;3.80;;
15230;SDS011;32569;51.762;8.564;2022-10-16T00:34:10;4.07;;;3.70;;
15230;SDS011;32569;51.762;8.564;2022-10-16T00:36:37;4.73;;;3.47;;
15230;SDS011;32569;51.762;8.564;2022-10-16T00:39:04;4.40;;;3.93;;
15230;SDS011;32569;51.762;8.564;2022-10-16T00:41:31;5.70;;;4.30;;
15230;SDS011;32569;51.762;8.564;2022-10-16T00:44:00;4.80;;;4.40;;
15230;SDS011;32569;51.762;8.564;2022-10-16T00:46:28;5.43;;;4.90;;
15230;SDS011;32569;51.762;8.564;2022-10-16T00:49:01;5.47;;;5.07;;
15230;SDS011;32569;51.762;8.564;2022-10-16T00:51:32;5.97;;;5.00;;
15230;SDS011;32569;51.762;8.564;2022-10-16T00:54:00;6.97;;;5.00;;
15230;SDS011;32569;51.762;8.564;2022-10-16T00:56:30;6.07;;;5.57;;
15230;SDS011;32569;51.762;8.564;2022-10-16T00:58:59;5.67;;;5.20;;
15230;SDS011;32569;51.762;8.564;2022-10-16T01:01:29;5.80;;;5.20;;
15230;SDS011;32569;51.762;8.564;2022-10-16T01:03:56;6.03;;;4.87;;
15230;SDS011;32569;51.762;8.564;2022-10-16T01:06:24;7.30;;;4.83;;
15230;SDS011;32569;51.762;8.564;2022-10-16T01:08:58;5.33;;;4.57;;
15230;SDS011;32569;51.762;8.564;2022-10-16T01:11:37;5.03;;;4.57;;
15230;SDS011;32569;51.762;8.564;2022-10-16T01:14:14;4.60;;;4.20;;
15230;SDS011;32569;51.762;8.564;2022-10-16T01:16:48;5.93;;;4.80;;
15230;SDS011;32569;51.762;8.564;2022-10-16T01:19:20;5.33;;;4.77;;
15230;SDS011;32569;51.762;8.564;2022-10-16T01:21:55;7.03;;;4.67;;
15230;SDS011;32569;51.762;8.564;2022-10-16T01:24:27;7.53;;;4.53;;
15230;SDS011;32569;51.762;8.564;2022-10-16T01:27:03;5.53;;;3.93;;
15230;SDS011;32569;51.762;8.564;2022-10-16T01:29:36;8.77;;;4.63;;
15230;SDS011;32569;51.762;8.564;2022-10-16T01:32:10;4.20;;;3.77;;
15230;SDS011;32569;51.762;8.564;2022-10-16T01:34:44;4.40;;;4.00;;
15230;SDS011;32569;51.762;8.564;2022-10-16T01:37:16;4.47;;;3.93;;
15230;SDS011;32569;51.762;8.564;2022-10-16T01:39:51;4.47;;;4.10;;
15230;SDS011;32569;51.762;8.564;2022-10-16T01:42:23;4.17;;;3.77;;
15230;SDS011;32569;51.762;8.564;2022-10-16T01:44:56;5.23;;;4.00;;
15230;SDS011;32569;51.762;8.564;2022-10-16T01:47:25;5.67;;;4.00;;
15230;SDS011;32569;51.762;8.564;2022-10-16T01:49:53;4.60;;;3.73;;
15230;SDS011;32569;51.762;8.564;2022-10-16T01:52:23;4.33;;;3.83;;
15230;SDS011;32569;51.762;8.564;2022-10-16T01:54:53;4.33;;;3.90;;
15230;SDS011;32569;51.762;8.564;2022-10-16T01:57:24;4.83;;;3.67;;
15230;SDS011;32569;51.762;8.564;2022-10-16T01:59:52;4.23;;;3.90;;
15230;SDS011;32569;51.762;8.564;2022-10-16T02:02:22;4.63;;;4.20;;
15230;SDS011;32569;51.762;8.564;2022-10-16T02:04:53;5.93;;;4.60;;
15230;SDS011;32569;51.762;8.564;2022-10-16T02:07:24;4.53;;;4.13;;
15230;SDS011;32569;51.762;8.564;2022-10-16T02:09:51;5.13;;;4.30;;
15230;SDS011;32569;51.762;8.564;2022-10-16T02:12:19;5.20;;;4.70;;
15230;SDS011;32569;51.762;8.564;2022-10-16T02:14:51;7.33;;;5.77;;
15230;SDS011;32569;51.762;8.564;2022-10-16T02:17:18;5.57;;;4.93;;
15230;SDS011;32569;51.762;8.564;2022-10-16T02:19:46;5.37;;;4.57;;
15230;SDS011;32569;51.762;8.564;2022-10-16T02:22:16;5.70;;;4.67;;
15230;SDS011;32569;51.762;8.564;2022-10-16T02:24:50;5.67;;;5.07;;
15230;SDS011;32569;51.762;8.564;2022-10-16T02:27:21;5.30;;;4.80;;
15230;SDS011;32569;51.762;8.564;2022-10-16T02:29:54;5.50;;;4.97;;
15230;SDS011;32569;51.762;8.564;2022-10-16T02:32:27;5.17;;;4.47;;
15230;SDS011;32569;51.762;8.564;2022-10-16T02:34:57;5.40;;;4.90;;
15230;SDS011;32569;51.762;8.564;2022-10-16T02:37:26;8.50;;;5.10;;
15230;SDS011;32569;51.762;8.564;2022-10-16T02:39:54;5.20;;;4.70;;
15230;SDS011;32569;51.762;8.564;2022-10-16T02:42:26;8.57;;;5.17;;
15230;SDS011;32569;51.762;8.564;2022-10-16T02:44:55;6.63;;;4.77;;
15230;SDS011;32569;51.762;8.564;2022-10-16T02:47:22;5.17;;;4.70;;
15230;SDS011;32569;51.762;8.564;2022-10-16T02:49:49;5.37;;;4.87;;
15230;SDS011;32569;51.762;8.564;2022-10-16T02:52:15;5.37;;;4.53;;
15230;SDS011;32569;51.762;8.564;2022-10-16T02:54:42;4.73;;;4.33;;
15230;SDS011;32569;51.762;8.564;2022-10-16T02:57:09;10.20;;;4.27;;
15230;SDS011;32569;51.762;8.564;2022-10-16T02:59:35;4.27;;;3.87;;
15230;SDS011;32569;51.762;8.564;2022-10-16T03:02:03;4.30;;;4.00;;
15230;SDS011;32569;51.762;8.564;2022-10-16T03:04:30;5.67;;;4.37;;
15230;SDS011;32569;51.762;8.564;2022-10-16T03:06:57;4.00;;;3.70;;
15230;SDS011;32569;51.762;8.564;2022-10-16T03:09:23;4.23;;;3.83;;
15230;SDS011;32569;51.762;8.564;2022-10-16T03:11:50;4.00;;;3.70;;
15230;SDS011;32569;51.762;8.564;2022-10-16T03:14:17;3.80;;;3.50;;
15230;SDS011;32569;51.762;8.564;2022-10-16T03:16:44;4.67;;;3.77;;
15230;SDS011;32569;51.762;8.564;2022-10-16T03:19:12;6.10;;;3.50;;
15230;SDS011;32569;51.762;8.564;2022-10-16T03:21:38;3.37;;;3.07;;
15230;SDS011;32569;51.762;8.564;2022-10-16T03:24:05;3.10;;;2.80;;
15230;SDS011;32569;51.762;8.564;2022-10-16T03:26:32;3.40;;;3.10;;
15230;SDS011;32569;51.762;8.564;2022-10-16T03:28:59;3.73;;;3.00;;
15230;SDS011;32569;51.762;8.564;2022-10-16T03:31:27;3.10;;;2.80;;
15230;SDS011;32569;51.762;8.564;2022-10-16T03:33:54;3.67;;;2.90;;
15230;SDS011;32569;51.762;8.564;2022-10-16T03:36:22;3.23;;;3.00;;
15230;SDS011;32569;51.762;8.564;2022-10-16T03:38:49;2.93;;;2.70;;
15230;SDS011;32569;51.762;8.564;2022-10-16T03:41:16;4.93;;;3.10;;
15230;SDS011;32569;51.762;8.564;2022-10-16T03:43:43;3.10;;;2.80;;
15230;SDS011;32569;51.762;8.564;2022-10-16T03:46:09;3.73;;;3.30;;
15230;SDS011;32569;51.762;8.564;2022-10-16T03:48:36;3.70;;;3.00;;
15230;SDS011;32569;51.762;8.564;2022-10-16T03:51:04;3.20;;;2.90;;
15230;SDS011;32569;51.762;8.564;2022-10-16T03:53:33;3.37;;;2.70;;
15230;SDS011;32569;51.762;8.564;2022-10-16T03:55:59;4.93;;;2.87;;
15230;SDS011;32569;51.762;8.564;2022-10-16T03:58:26;3.10;;;2.70;;
15230;SDS011;32569;51.762;8.564;2022-10-16T04:00:53;2.90;;;2.70;;
15230;SDS011;32569;51.762;8.564;2022-10-16T04:03:20;3.93;;;2.57;;
15230;SDS011;32569;51.762;8.564;2022-10-16T04:05:48;3.33;;;2.70;;
15230;SDS011;32569;51.762;8.564;2022-10-16T04:08:14;3.23;;;2.60;;
15230;SDS011;32569;51.762;8.564;2022-10-16T04:10:43;2.70;;;2.50;;
15230;SDS011;32569;51.762;8.564;2022-10-16T04:13:10;4.40;;;2.90;;
15230;SDS011;32569;51.762;8.564;2022-10-16T04:15:37;2.60;;;2.40;;
15230;SDS011;32569;51.762;8.564;2022-10-16T04:18:03;2.70;;;2.50;;
15230;SDS011;32569;51.762;8.564;2022-10-16T04:20:30;6.10;;;3.10;;
15230;SDS011;32569;51.762;8.564;2022-10-16T04:22:57;3.90;;;2.73;;
15230;SDS011;32569;51.762;8.564;2022-10-16T04:25:24;4.00;;;2.97;;
15230;SDS011;32569;51.762;8.564;2022-10-16T04:27:53;3.63;;;2.60;;
15230;SDS011;32569;51.762;8.564;2022-10-16T04:30:21;2.73;;;2.53;;
15230;SDS011;32569;51.762;8.564;2022-10-16T04:32:48;3.17;;;2.60;;
15230;SDS011;32569;51.762;8.564;2022-10-16T04:35:15;2.97;;;2.77;;
15230;SDS011;32569;51.762;8.564;2022-10-16T04:37:42;3.97;;;2.53;;
15230;SDS011;32569;51.762;8.564;2022-10-16T04:40:09;4.40;;;2.80;;
15230;SDS011;32569;51.762;8.564;2022-10-16T04:42:36;3.10;;;2.80;;
15230;SDS011;32569;51.762;8.564;2022-10-16T04:45:05;2.60;;;2.40;;
15230;SDS011;32569;51.762;8.564;2022-10-16T04:47:32;2.70;;;2.50;;
15230;SDS011;32569;51.762;8.564;2022-10-16T04:49:59;2.60;;;2.40;;
15230;SDS011;32569;51.762;8.564;2022-10-16T04:52:26;3.40;;;3.20;;
15230;SDS011;32569;51.762;8.564;2022-10-16T04:54:52;4.70;;;3.90;;
15230;SDS011;32569;51.762;8.564;2022-10-16T04:57:21;5.90;;;4.60;;
15230;SDS011;32569;51.762;8.564;2022-10-16T04:59:48;5.77;;;4.40;;
15230;SDS011;32569;51.762;8.564;2022-10-16T05:02:16;4.30;;;3.90;;
15230;SDS011;32569;51.762;8.564;2022-10-16T05:04:43;4.90;;;3.37;;
15230;SDS011;32569;51.762;8.564;2022-10-16T05:07:09;3.30;;;2.90;;
15230;SDS011;32569;51.762;8.564;2022-10-16T05:09:36;4.70;;;3.67;;
15230;SDS011;32569;51.762;8.564;2022-10-16T05:12:03;3.13;;;2.83;;
15230;SDS011;32569;51.762;8.564;2022-10-16T05:14:30;4.07;;;3.20;;
15230;SDS011;32569;51.762;8.564;2022-10-16T05:16:56;3.77;;;3.47;;
15230;SDS011;32569;51.762;8.564;2022-10-16T05:19:25;3.47;;;3.17;;
15230;SDS011;32569;51.762;8.564;2022-10-16T05:21:51;3.40;;;3.10;;
15230;SDS011;32569;51.762;8.564;2022-10-16T05:24:18;2.73;;;2.43;;
15230;SDS011;32569;51.762;8.564;2022-10-16T05:26:45;2.90;;;2.50;;
15230;SDS011;32569;51.762;8.564;2022-10-16T05:29:12;2.87;;;2.43;;
15230;SDS011;32569;51.762;8.564;2022-10-16T05:31:38;2.43;;;2.30;;
15230;SDS011;32569;51.762;8.564;2022-10-16T05:34:05;3.20;;;2.63;;
15230;SDS011;32569;51.762;8.564;2022-10-16T05:36:33;3.10;;;2.80;;
15230;SDS011;32569;51.762;8.564;2022-10-16T05:39:00;2.97;;;2.57;;
15230;SDS011;32569;51.762;8.564;2022-10-16T05:41:27;4.77;;;2.63;;
15230;SDS011;32569;51.762;8.564;2022-10-16T05:43:53;3.10;;;2.40;;
15230;SDS011;32569;51.762;8.564;2022-10-16T05:46:20;2.70;;;2.50;;
15230;SDS011;32569;51.762;8.564;2022-10-16T05:48:47;3.10;;;2.70;;
15230;SDS011;32569;51.762;8.564;2022-10-16T05:51:14;3.53;;;2.80;;
15230;SDS011;32569;51.762;8.564;2022-10-16T05:53:42;3.53;;;3.10;;
15230;SDS011;32569;51.762;8.564;2022-10-16T05:56:10;3.00;;;2.80;;
15230;SDS011;32569;51.762;8.564;2022-10-16T05:58:37;3.47;;;3.13;;
15230;SDS011;32569;51.762;8.564;2022-10-16T06:01:06;3.60;;;2.80;;
15230;SDS011;32569;51.762;8.564;2022-10-16T06:03:35;2.80;;;2.60;;
15230;SDS011;32569;51.762;8.564;2022-10-16T06:06:07;2.80;;;2.60;;
15230;SDS011;32569;51.762;8.564;2022-10-16T06:08:34;3.33;;;3.00;;
15230;SDS011;32569;51.762;8.564;2022-10-16T06:11:03;3.23;;;2.87;;
15230;SDS011;32569;51.762;8.564;2022-10-16T06:13:31;2.90;;;2.70;;
15230;SDS011;32569;51.762;8.564;2022-10-16T06:15:58;3.00;;;2.80;;
15230;SDS011;32569;51.762;8.564;2022-10-16T06:18:26;2.90;;;2.70;;
15230;SDS011;32569;51.762;8.564;2022-10-16T06:20:54;2.93;;;2.73;;
15230;SDS011;32569;51.762;8.564;2022-10-16T06:23:21;3.13;;;2.83;;
15230;SDS011;32569;51.762;8.564;2022-10-16T06:25:48;3.40;;;2.63;;
15230;SDS011;32569;51.762;8.564;2022-10-16T06:28:16;3.33;;;2.63;;
15230;SDS011;32569;51.762;8.564;2022-10-16T06:30:43;2.63;;;2.43;;
15230;SDS011;32569;51.762;8.564;2022-10-16T06:33:10;2.77;;;2.57;;
15230;SDS011;32569;51.762;8.564;2022-10-16T06:35:37;2.63;;;2.43;;
15230;SDS011;32569;51.762;8.564;2022-10-16T06:38:04;2.70;;;2.50;;
15230;SDS011;32569;51.762;8.564;2022-10-16T06:40:31;2.50;;;2.40;;
15230;SDS011;32569;51.762;8.564;2022-10-16T06:42:57;2.73;;;2.53;;
15230;SDS011;32569;51.762;8.564;2022-10-16T06:45:26;2.57;;;2.37;;
15230;SDS011;32569;51.762;8.564;2022-10-16T06:47:52;2.97;;;2.10;;
15230;SDS011;32569;51.762;8.564;2022-10-16T06:50:19;2.30;;;2.10;;
15230;SDS011;32569;51.762;8.564;2022-10-16T06:52:46;2.43;;;1.97;;
15230;SDS011;32569;51.762;8.564;2022-10-16T06:55:13;2.90;;;2.00;;
15230;SDS011;32569;51.762;8.564;2022-10-16T06:57:42;2.40;;;2.30;;
15230;SDS011;32569;51.762;8.564;2022-10-16T07:00:09;1.80;;;1.70;;
15230;SDS011;32569;51.762;8.564;2022-10-16T07:02:38;1.83;;;1.73;;
15230;SDS011;32569;51.762;8.564;2022-10-16T07:05:04;3.77;;;1.97;;
15230;SDS011;32569;51.762;8.564;2022-10-16T07:07:32;1.80;;;1.70;;
15230;SDS011;32569;51.762;8.564;2022-10-16T07:09:58;3.10;;;1.80;;
15230;SDS011;32569;51.762;8.564;2022-10-16T07:12:25;2.13;;;1.93;;
15230;SDS011;32569;51.762;8.564;2022-10-16T07:14:52;1.90;;;1.80;;
15230;SDS011;32569;51.762;8.564;2022-10-16T07:17:19;2.53;;;1.90;;
15230;SDS011;32569;51.762;8.564;2022-10-16T07:19:49;1.80;;;1.70;;
15230;SDS011;32569;51.762;8.564;2022-10-16T07:22:18;1.70;;;1.60;;
15230;SDS011;32569;51.762;8.564;2022-10-16T07:24:44;4.13;;;2.17;;
15230;SDS011;32569;51.762;8.564;2022-10-16T07:27:11;1.80;;;1.70;;
15230;SDS011;32569;51.762;8.564;2022-10-16T07:29:38;2.03;;;1.93;;
15230;SDS011;32569;51.762;8.564;2022-10-16T07:32:05;3.43;;;2.07;;
15230;SDS011;32569;51.762;8.564;2022-10-16T07:34:32;2.00;;;1.90;;
15230;SDS011;32569;51.762;8.564;2022-10-16T07:37:00;4.03;;;2.07;;
15230;SDS011;32569;51.762;8.564;2022-10-16T07:39:26;1.90;;;1.80;;
15230;SDS011;32569;51.762;8.564;2022-10-16T07:41:53;3.27;;;1.90;;
15230;SDS011;32569;51.762;8.564;2022-10-16T07:44:21;1.90;;;1.80;;
15230;SDS011;32569;51.762;8.564;2022-10-16T07:46:47;1.77;;;1.60;;
15230;SDS011;32569;51.762;8.564;2022-10-16T07:49:14;1.70;;;1.60;;
15230;SDS011;32569;51.762;8.564;2022-10-16T07:51:41;1.73;;;1.60;;
15230;SDS011;32569;51.762;8.564;2022-10-16T07:54:09;1.70;;;1.60;;
15230;SDS011;32569;51.762;8.564;2022-10-16T07:56:36;1.80;;;1.70;;
15230;SDS011;32569;51.762;8.564;2022-10-16T07:59:03;1.70;;;1.60;;
15230;SDS011;32569;51.762;8.564;2022-10-16T08:01:30;2.80;;;1.50;;
15230;SDS011;32569;51.762;8.564;2022-10-16T08:03:57;2.50;;;1.77;;
15230;SDS011;32569;51.762;8.564;2022-10-16T08:06:23;1.70;;;1.60;;
15230;SDS011;32569;51.762;8.564;2022-10-16T08:08:50;3.07;;;1.43;;
15230;SDS011;32569;51.762;8.564;2022-10-16T08:11:19;4.03;;;1.83;;
15230;SDS011;32569;51.762;8.564;2022-10-16T08:13:46;1.70;;;1.60;;
15230;SDS011;32569;51.762;8.564;2022-10-16T08:16:13;1.73;;;1.57;;
15230;SDS011;32569;51.762;8.564;2022-10-16T08:18:42;2.63;;;1.50;;
15230;SDS011;32569;51.762;8.564;2022-10-16T08:21:12;1.63;;;1.50;;
15230;SDS011;32569;51.762;8.564;2022-10-16T08:23:40;1.87;;;1.57;;
15230;SDS011;32569;51.762;8.564;2022-10-16T08:26:07;1.70;;;1.60;;
15230;SDS011;32569;51.762;8.564;2022-10-16T08:28:36;1.60;;;1.50;;
15230;SDS011;32569;51.762;8.564;2022-10-16T08:31:07;1.63;;;1.43;;
15230;SDS011;32569;51.762;8.564;2022-10-16T08:33:34;2.87;;;2.60;;
15230;SDS011;32569;51.762;8.564;2022-10-16T08:36:02;1.97;;;1.87;;
15230;SDS011;32569;51.762;8.564;2022-10-16T08:38:29;1.60;;;1.50;;
15230;SDS011;32569;51.762;8.564;2022-10-16T08:40:57;2.27;;;1.57;;
15230;SDS011;32569;51.762;8.564;2022-10-16T08:43:50;2.67;;;2.47;;
15230;SDS011;32569;51.762;8.564;2022-10-16T08:46:35;2.20;;;2.00;;
15230;SDS011;32569;51.762;8.564;2022-10-16T08:49:10;2.00;;;1.50;;
15230;SDS011;32569;51.762;8.564;2022-10-16T08:51:39;2.90;;;1.50;;
15230;SDS011;32569;51.762;8.564;2022-10-16T08:54:11;2.53;;;1.60;;
15230;SDS011;32569;51.762;8.564;2022-10-16T08:56:48;1.93;;;1.50;;
15230;SDS011;32569;51.762;8.564;2022-10-16T08:59:17;1.40;;;1.30;;
15230;SDS011;32569;51.762;8.564;2022-10-16T09:01:45;2.60;;;1.40;;
15230;SDS011;32569;51.762;8.564;2022-10-16T09:04:30;2.17;;;1.80;;
15230;SDS011;32569;51.762;8.564;2022-10-16T09:07:20;1.40;;;1.30;;
15230;SDS011;32569;51.762;8.564;2022-10-16T09:09:54;1.93;;;1.77;;
15230;SDS011;32569;51.762;8.564;2022-10-16T09:12:36;1.40;;;1.30;;
15230;SDS011;32569;51.762;8.564;2022-10-16T09:15:13;1.50;;;1.40;;
15230;SDS011;32569;51.762;8.564;2022-10-16T09:17:48;1.50;;;1.40;;
15230;SDS011;32569;51.762;8.564;2022-10-16T09:20:26;2.13;;;1.40;;
15230;SDS011;32569;51.762;8.564;2022-10-16T09:23:00;2.10;;;1.57;;
15230;SDS011;32569;51.762;8.564;2022-10-16T09:25:40;2.63;;;2.40;;
15230;SDS011;32569;51.762;8.564;2022-10-16T09:28:09;1.53;;;1.43;;
15230;SDS011;32569;51.762;8.564;2022-10-16T09:30:37;1.37;;;1.20;;
15230;SDS011;32569;51.762;8.564;2022-10-16T09:33:05;1.97;;;1.30;;
15230;SDS011;32569;51.762;8.564;2022-10-16T09:35:33;1.90;;;1.20;;
15230;SDS011;32569;51.762;8.564;2022-10-16T09:38:03;1.40;;;1.30;;
15230;SDS011;32569;51.762;8.564;2022-10-16T09:40:30;2.07;;;1.53;;
15230;SDS011;32569;51.762;8.564;2022-10-16T09:43:01;3.10;;;1.60;;
15230;SDS011;32569;51.762;8.564;2022-10-16T09:45:32;1.87;;;1.50;;
15230;SDS011;32569;51.762;8.564;2022-10-16T09:48:02;1.67;;;1.30;;
15230;SDS011;32569;51.762;8.564;2022-10-16T09:50:37;1.50;;;1.40;;
15230;SDS011;32569;51.762;8.564;2022-10-16T09:53:04;2.03;;;1.33;;
15230;SDS011;32569;51.762;8.564;2022-10-16T09:55:34;3.73;;;1.33;;
15230;SDS011;32569;51.762;8.564;2022-10-16T09:58:01;2.80;;;1.37;;
15230;SDS011;32569;51.762;8.564;2022-10-16T10:00:28;1.93;;;1.40;;
15230;SDS011;32569;51.762;8.564;2022-10-16T10:02:55;1.53;;;1.43;;
15230;SDS011;32569;51.762;8.564;2022-10-16T10:05:24;1.87;;;1.30;;
15230;SDS011;32569;51.762;8.564;2022-10-16T10:07:54;1.67;;;1.53;;
15230;SDS011;32569;51.762;8.564;2022-10-16T10:10:23;1.70;;;1.60;;
15230;SDS011;32569;51.762;8.564;2022-10-16T10:12:52;2.27;;;1.60;;
15230;SDS011;32569;51.762;8.564;2022-10-16T10:15:19;2.47;;;0.90;;
15230;SDS011;32569;51.762;8.564;2022-10-16T10:17:49;2.83;;;1.17;;
15230;SDS011;32569;51.762;8.564;2022-10-16T10:20:25;2.03;;;1.53;;
15230;SDS011;32569;51.762;8.564;2022-10-16T10:22:53;1.80;;;1.17;;
15230;SDS011;32569;51.762;8.564;2022-10-16T10:25:37;3.27;;;1.27;;
15230;SDS011;32569;51.762;8.564;2022-10-16T10:28:18;1.40;;;1.30;;
15230;SDS011;32569;51.762;8.564;2022-10-16T10:30:59;0.90;;;0.90;;
15230;SDS011;32569;51.762;8.564;2022-10-16T10:33:33;1.53;;;1.20;;
15230;SDS011;32569;51.762;8.564;2022-10-16T10:36:25;1.10;;;1.00;;
15230;SDS011;32569;51.762;8.564;2022-10-16T10:38:56;1.17;;;1.03;;
15230;SDS011;32569;51.762;8.564;2022-10-16T10:41:38;1.13;;;1.10;;
15230;SDS011;32569;51.762;8.564;2022-10-16T10:44:22;2.50;;;2.30;;
15230;SDS011;32569;51.762;8.564;2022-10-16T10:47:05;2.00;;;1.20;;
15230;SDS011;32569;51.762;8.564;2022-10-16T10:49:43;3.60;;;1.10;;
15230;SDS011;32569;51.762;8.564;2022-10-16T10:52:33;2.27;;;1.53;;
15230;SDS011;32569;51.762;8.564;2022-10-16T10:55:13;1.73;;;1.00;;
15230;SDS011;32569;51.762;8.564;2022-10-16T10:57:50;1.30;;;1.00;;
15230;SDS011;32569;51.762;8.564;2022-10-16T11:00:28;1.10;;;1.00;;
15230;SDS011;32569;51.762;8.564;2022-10-16T11:03:00;2.90;;;1.30;;
15230;SDS011;32569;51.762;8.564;2022-10-16T11:05:40;1.33;;;1.23;;
15230;SDS011;32569;51.762;8.564;2022-10-16T11:08:11;3.33;;;1.20;;
15230;SDS011;32569;51.762;8.564;2022-10-16T11:10:45;2.13;;;1.13;;
15230;SDS011;32569;51.762;8.564;2022-10-16T11:13:19;1.20;;;1.10;;
15230;SDS011;32569;51.762;8.564;2022-10-16T11:15:55;3.37;;;1.20;;
15230;SDS011;32569;51.762;8.564;2022-10-16T11:18:27;1.83;;;0.90;;
15230;SDS011;32569;51.762;8.564;2022-10-16T11:21:00;0.80;;;0.80;;
15230;SDS011;32569;51.762;8.564;2022-10-16T11:23:33;1.87;;;1.30;;
15230;SDS011;32569;51.762;8.564;2022-10-16T11:26:09;2.60;;;1.20;;
15230;SDS011;32569;51.762;8.564;2022-10-16T11:28:42;1.30;;;1.20;;
15230;SDS011;32569;51.762;8.564;2022-10-16T11:31:13;2.07;;;1.00;;
15230;SDS011;32569;51.762;8.564;2022-10-16T11:33:46;1.00;;;1.00;;
15230;SDS011;32569;51.762;8.564;2022-10-16T11:36:22;0.80;;;0.80;;
15230;SDS011;32569;51.762;8.564;2022-10-16T11:38:57;1.33;;;1.10;;
15230;SDS011;32569;51.762;8.564;2022-10-16T11:41:29;2.33;;;0.90;;
15230;SDS011;32569;51.762;8.564;2022-10-16T11:44:06;2.83;;;1.20;;
15230;SDS011;32569;51.762;8.564;2022-10-16T11:46:45;1.30;;;1.10;;
15230;SDS011;32569;51.762;8.564;2022-10-16T11:49:18;1.57;;;1.47;;
15230;SDS011;32569;51.762;8.564;2022-10-16T11:51:48;1.40;;;1.00;;
15230;SDS011;32569;51.762;8.564;2022-10-16T11:54:24;1.77;;;1.60;;
15230;SDS011;32569;51.762;8.564;2022-10-16T11:56:57;2.07;;;1.40;;
15230;SDS011;32569;51.762;8.564;2022-10-16T11:59:30;1.40;;;1.30;;
15230;SDS011;32569;51.762;8.564;2022-10-16T12:02:10;3.60;;;1.27;;
15230;SDS011;32569;51.762;8.564;2022-10-16T12:04:54;1.23;;;0.90;;
15230;SDS011;32569;51.762;8.564;2022-10-16T12:07:32;1.40;;;0.90;;
15230;SDS011;32569;51.762;8.564;2022-10-16T12:10:17;1.40;;;1.00;;
15230;SDS011;32569;51.762;8.564;2022-10-16T12:12:46;1.30;;;0.93;;
15230;SDS011;32569;51.762;8.564;2022-10-16T12:15:20;0.90;;;0.80;;
15230;SDS011;32569;51.762;8.564;2022-10-16T12:17:51;3.47;;;1.07;;
15230;SDS011;32569;51.762;8.564;2022-10-16T12:20:26;1.37;;;1.03;;
15230;SDS011;32569;51.762;8.564;2022-10-16T12:22:57;1.10;;;1.00;;
15230;SDS011;32569;51.762;8.564;2022-10-16T12:25:28;0.80;;;0.80;;
15230;SDS011;32569;51.762;8.564;2022-10-16T12:28:00;1.37;;;0.80;;
15230;SDS011;32569;51.762;8.564;2022-10-16T12:30:29;1.37;;;1.00;;
15230;SDS011;32569;51.762;8.564;2022-10-16T12:32:58;2.40;;;0.87;;
15230;SDS011;32569;51.762;8.564;2022-10-16T12:35:28;1.00;;;0.90;;
15230;SDS011;32569;51.762;8.564;2022-10-16T12:38:07;1.30;;;1.23;;
15230;SDS011;32569;51.762;8.564;2022-10-16T12:40:43;0.67;;;0.60;;
15230;SDS011;32569;51.762;8.564;2022-10-16T12:43:13;0.93;;;0.93;;
15230;SDS011;32569;51.762;8.564;2022-10-16T12:46:19;1.30;;;1.00;;
15230;SDS011;32569;51.762;8.564;2022-10-16T12:49:05;2.47;;;0.90;;
15230;SDS011;32569;51.762;8.564;2022-10-16T12:51:49;1.73;;;1.30;;
15230;SDS011;32569;51.762;8.564;2022-10-16T12:54:17;1.10;;;1.00;;
15230;SDS011;32569;51.762;8.564;2022-10-16T12:56:50;1.57;;;1.00;;
15230;SDS011;32569;51.762;8.564;2022-10-16T12:59:36;1.10;;;1.00;;
15230;SDS011;32569;51.762;8.564;2022-10-16T13:02:33;2.00;;;0.93;;
15230;SDS011;32569;51.762;8.564;2022-10-16T13:05:21;2.30;;;0.97;;
15230;SDS011;32569;51.762;8.564;2022-10-16T13:08:12;1.57;;;0.73;;
15230;SDS011;32569;51.762;8.564;2022-10-16T13:11:00;1.13;;;0.90;;
15230;SDS011;32569;51.762;8.564;2022-10-16T13:13:41;1.10;;;1.00;;
15230;SDS011;32569;51.762;8.564;2022-10-16T13:16:35;0.80;;;0.80;;
15230;SDS011;32569;51.762;8.564;2022-10-16T13:19:16;0.80;;;0.80;;
15230;SDS011;32569;51.762;8.564;2022-10-16T13:21:51;3.53;;;1.27;;
15230;SDS011;32569;51.762;8.564;2022-10-16T13:24:25;1.77;;;1.10;;
15230;SDS011;32569;51.762;8.564;2022-10-16T13:27:05;1.57;;;0.73;;
15230;SDS011;32569;51.762;8.564;2022-10-16T13:29:41;1.10;;;1.00;;
15230;SDS011;32569;51.762;8.564;2022-10-16T13:32:09;1.80;;;0.90;;
15230;SDS011;32569;51.762;8.564;2022-10-16T13:34:43;2.40;;;1.10;;
15230;SDS011;32569;51.762;8.564;2022-10-16T13:37:16;4.03;;;2.73;;
15230;SDS011;32569;51.762;8.564;2022-10-16T13:39:44;1.03;;;1.03;;
15230;SDS011;32569;51.762;8.564;2022-10-16T13:42:12;1.63;;;1.17;;
15230;SDS011;32569;51.762;8.564;2022-10-16T13:44:43;1.20;;;1.10;;
15230;SDS011;32569;51.762;8.564;2022-10-16T13:47:16;2.43;;;1.40;;
15230;SDS011;32569;51.762;8.564;2022-10-16T13:49:45;2.10;;;1.20;;
15230;SDS011;32569;51.762;8.564;2022-10-16T13:52:16;1.53;;;0.90;;
15230;SDS011;32569;51.762;8.564;2022-10-16T13:54:44;2.10;;;1.07;;
15230;SDS011;32569;51.762;8.564;2022-10-16T13:57:12;1.00;;;0.87;;
15230;SDS011;32569;51.762;8.564;2022-10-16T13:59:40;1.23;;;1.03;;
15230;SDS011;32569;51.762;8.564;2022-10-16T14:02:13;0.97;;;0.97;;
15230;SDS011;32569;51.762;8.564;2022-10-16T14:04:45;0.90;;;0.90;;
15230;SDS011;32569;51.762;8.564;2022-10-16T14:07:13;0.83;;;0.83;;
15230;SDS011;32569;51.762;8.564;2022-10-16T14:09:47;1.73;;;1.07;;
15230;SDS011;32569;51.762;8.564;2022-10-16T14:12:15;1.30;;;1.10;;
15230;SDS011;32569;51.762;8.564;2022-10-16T14:14:44;1.43;;;1.10;;
15230;SDS011;32569;51.762;8.564;2022-10-16T14:17:13;1.20;;;1.03;;
15230;SDS011;32569;51.762;8.564;2022-10-16T14:19:45;2.23;;;1.37;;
15230;SDS011;32569;51.762;8.564;2022-10-16T14:22:21;1.00;;;0.87;;
15230;SDS011;32569;51.762;8.564;2022-10-16T14:24:53;3.03;;;0.90;;
15230;SDS011;32569;51.762;8.564;2022-10-16T14:27:27;1.60;;;0.90;;
15230;SDS011;32569;51.762;8.564;2022-10-16T14:30:09;1.13;;;1.00;;
15230;SDS011;32569;51.762;8.564;2022-10-16T14:32:41;3.00;;;0.80;;
15230;SDS011;32569;51.762;8.564;2022-10-16T14:35:22;0.80;;;0.77;;
15230;SDS011;32569;51.762;8.564;2022-10-16T14:37:51;1.17;;;0.80;;
15230;SDS011;32569;51.762;8.564;2022-10-16T14:40:18;0.90;;;0.90;;
15230;SDS011;32569;51.762;8.564;2022-10-16T14:42:49;1.70;;;1.50;;
15230;SDS011;32569;51.762;8.564;2022-10-16T14:45:19;1.40;;;1.30;;
15230;SDS011;32569;51.762;8.564;2022-10-16T14:47:48;1.50;;;1.40;;
15230;SDS011;32569;51.762;8.564;2022-10-16T14:50:17;1.00;;;0.90;;
15230;SDS011;32569;51.762;8.564;2022-10-16T14:52:44;2.17;;;1.17;;
15230;SDS011;32569;51.762;8.564;2022-10-16T14:55:11;2.37;;;1.00;;
15230;SDS011;32569;51.762;8.564;2022-10-16T14:57:38;2.10;;;1.10;;
15230;SDS011;32569;51.762;8.564;2022-10-16T15:00:08;1.73;;;1.20;;
15230;SDS011;32569;51.762;8.564;2022-10-16T15:02:43;1.23;;;0.87;;
15230;SDS011;32569;51.762;8.564;2022-10-16T15:05:11;2.60;;;1.20;;
15230;SDS011;32569;51.762;8.564;2022-10-16T15:07:41;2.80;;;1.30;;
15230;SDS011;32569;51.762;8.564;2022-10-16T15:10:08;1.83;;;1.10;;